Portada
METAR-TAF:

METAR-TAF

Aeropuertos :

Malden, Misuri, Estados Unidos

latitud: 36-35-54N, longitud: 089-59-33W, altitud: 90 m

Observación

El informe se hizo hace 32 minutos, a las 08:35 UTC
Viento calma
Temperatura 21°C
Humedad 94%
Presión 1015 hPa
Visibilidad: 4.0 km
neblina

METAR: KMAW 060835Z AUTO 00000KT 2 1/2SM BR 21/20 A2996 RMK AO2 SKY OBSCURED

Hora: 04:07 (09:07 UTC)


TAF: falta

Observaciones y pronósticos meteorológicos de más de 4000 aeropuertos (mensajes METAR y TAF).

Los puntos amarillos y rojos representan las estaciones disponibles.

Ponga el ratón en el punto deseado para ver el nombre de la estación.

Haga clic para ver las observaciones y los pronósticos meteorológicos.

Para cambiar el mapa : haga clic en los botones verdes con una cruz de color negro para hacer un zoom, en el botón verde con un guión para alejar o en las flechas verdes para mapas adyacentes.


METAR-TAF: